ADDS METAR Data INFO
IDs: Format: Raw Decoded Include TAF

Data at: 0208 UTC 14 Dec 2017

KFYG 140155Z AUTO 35012G20KT 10SM CLR 08/M01 A2977 RMK AO2
KFYG 140135Z AUTO 32013KT 10SM FEW055 09/M02 A2974 RMK AO2
KFYG 140115Z AUTO 32013G18KT 10SM CLR 10/M02 A2973 RMK AO2
KFYG 140055Z AUTO 32013G24KT 10SM CLR 10/M02 A2972 RMK AO2
KFYG 140035Z AUTO 31012G23KT 10SM CLR 11/M02 A2971 RMK AO2
KFYG 140015Z AUTO 31016G24KT 10SM CLR 12/M03 A2970 RMK AO2
KFYG 132355Z AUTO 32016G22KT 10SM CLR 12/M03 A2969 RMK AO2
KFYG 132335Z AUTO 32012G18KT 10SM CLR 12/M02 A2968 RMK AO2
KFYG 132315Z AUTO 31009KT 10SM CLR 12/M02 A2967 RMK AO2
KFYG 132255Z AUTO 31014G26KT 10SM CLR 13/M02 A2965 RMK AO2
KFYG 132235Z AUTO 30018G29KT 10SM CLR 13/M01 A2965 RMK AO2
KFYG 132215Z AUTO 30015G22KT 10SM CLR 13/M01 A2964 RMK AO2
KFYG 132155Z AUTO 31014G22KT 10SM CLR 14/00 A2963 RMK AO2
KFYG 132135Z AUTO 30020G26KT 10SM CLR 14/00 A2961 RMK AO2
KFYG 132115Z AUTO 30018G28KT 10SM CLR 14/00 A2961 RMK AO2
KFYG 132055Z AUTO 30019G31KT 10SM CLR 14/M01 A2960 RMK AO2
KFYG 132035Z AUTO 30018G26KT 10SM CLR 14/M02 A2960 RMK AO2
KFYG 132015Z AUTO 29020G33KT 10SM CLR 14/M02 A2960 RMK AO2
KFYG 131955Z AUTO 29015G26KT 10SM CLR 14/M02 A2959 RMK AO2
KFYG 131935Z AUTO 29015G26KT 10SM CLR 14/M02 A2958 RMK AO2
KFYG 131915Z AUTO 28013G28KT 10SM CLR 13/M03 A2958 RMK AO2
KFYG 131855Z AUTO 29013G26KT 10SM CLR 13/M03 A2958 RMK AO2
KFYG 131835Z AUTO 30014G23KT 10SM CLR 13/M03 A2959 RMK AO2
KFYG 131815Z AUTO 28012G23KT 10SM CLR 12/M03 A2960 RMK AO2
KFYG 131755Z AUTO 29014G21KT 10SM CLR 12/M03 A2962 RMK AO2
KFYG 131735Z AUTO 28009G17KT 10SM CLR 10/M04 A2963 RMK AO2
KFYG 131715Z AUTO 28011G20KT 10SM CLR 10/M04 A2964 RMK AO2
KFYG 131655Z AUTO 27010G15KT 10SM CLR 10/M04 A2963 RMK AO2
KFYG 131635Z AUTO 28009G24KT 10SM CLR 09/M04 A2963 RMK AO2
KFYG 131615Z AUTO 27010G19KT 10SM CLR 09/M05 A2964 RMK AO2
KFYG 131555Z AUTO 26007KT 10SM CLR 08/M05 A2966 RMK AO2
KFYG 131535Z AUTO 24007KT 10SM CLR 07/M06 A2966 RMK AO2
KFYG 131515Z AUTO 24006KT 10SM CLR 05/M06 A2967 RMK AO2
KFYG 131455Z AUTO 23008KT 10SM CLR 04/M07 A2968 RMK AO2
KFYG 131435Z AUTO 00000KT 10SM CLR 04/M07 A2968 RMK AO2
KFYG 131415Z AUTO 14007KT 10SM CLR 03/M07 A2966 RMK AO2
KFYG 131355Z AUTO 16005KT 10SM CLR 01/M07 A2969 RMK AO2
KFYG 131335Z AUTO 00000KT 10SM CLR 00/M08 A2971 RMK AO2
KFYG 131315Z AUTO 15006KT 10SM CLR 00/M08 A2972 RMK AO2
KFYG 131255Z AUTO 14005KT 10SM CLR 00/M08 A2973 RMK AO2
KFYG 131235Z AUTO 15005KT 10SM CLR 00/M08 A2975 RMK AO2
KFYG 131215Z AUTO 00000KT 10SM CLR 00/M08 A2976 RMK AO2
KFYG 131155Z AUTO 00000KT 10SM CLR M01/M09 A2977 RMK AO2
KFYG 131135Z AUTO 14005KT 10SM CLR M01/M09 A2979 RMK AO2
KFYG 131115Z AUTO 00000KT 10SM CLR M01/M09 A2981 RMK AO2
KFYG 131055Z AUTO 13006KT 10SM CLR M02/M10 A2982 RMK AO2
KFYG 131035Z AUTO 13007KT 10SM CLR M02/M10 A2984 RMK AO2
KFYG 131015Z AUTO 13007KT 10SM CLR M02/M10 A2986 RMK AO2
KFYG 130955Z AUTO 13007KT 10SM CLR M02/M10 A2988 RMK AO2
KFYG 130935Z AUTO 00000KT 10SM CLR M02/M11 A2989 RMK AO2
KFYG 130915Z AUTO 00000KT 10SM CLR M04/M11 A2991 RMK AO2
KFYG 130855Z AUTO 00000KT 10SM CLR M05/M11 A2992 RMK AO2
KFYG 130835Z AUTO 00000KT 10SM CLR M06/M10 A2994 RMK AO2
KFYG 130815Z AUTO 00000KT 10SM CLR M07/M11 A2995 RMK AO2
KFYG 130755Z AUTO 00000KT 10SM CLR M07/M11 A2997 RMK AO2
KFYG 130735Z AUTO 00000KT 10SM CLR M07/M11 A2997 RMK AO2
KFYG 130715Z AUTO 00000KT 10SM FEW050 M07/M11 A2999 RMK AO2
KFYG 130655Z AUTO 00000KT 10SM CLR M07/M11 A3000 RMK AO2
KFYG 130635Z AUTO 00000KT 10SM CLR M05/M12 A3001 RMK AO2
KFYG 130615Z AUTO 00000KT 10SM CLR M05/M12 A3002 RMK AO2
KFYG 130555Z AUTO 00000KT 10SM CLR M07/M12 A3003 RMK AO2
KFYG 130535Z AUTO 00000KT 10SM FEW055 M06/M12 A3003 RMK AO2
KFYG 130515Z AUTO 00000KT 10SM CLR M05/M12 A3005 RMK AO2
KFYG 130455Z AUTO 00000KT 10SM CLR M05/M13 A3005 RMK AO2
KFYG 130435Z AUTO 00000KT 10SM CLR M05/M12 A3006 RMK AO2
KFYG 130415Z AUTO 00000KT 10SM CLR M05/M12 A3006 RMK AO2
KFYG 130355Z AUTO 00000KT 10SM CLR M05/M12 A3007 RMK AO2
KFYG 130335Z AUTO 00000KT 10SM FEW070 M04/M12 A3008 RMK AO2
KFYG 130315Z AUTO 00000KT 10SM CLR M03/M13 A3009 RMK AO2
KFYG 130255Z AUTO 00000KT 10SM CLR M04/M12 A3009 RMK AO2
KFYG 130235Z AUTO 00000KT 10SM CLR M03/M13 A3009 RMK AO2
KFYG 130215Z AUTO 00000KT 10SM CLR M03/M13 A3010 RMK AO2
KFYG 130155Z AUTO 00000KT 10SM CLR M01/M15 A3011 RMK AO2
KFYG 130135Z AUTO 00000KT 10SM CLR M01/M15 A3011 RMK AO2
KFYG 130115Z AUTO 00000KT 10SM CLR M01/M15 A3012 RMK AO2
KFYG 130055Z AUTO 00000KT 10SM CLR 00/M15 A3012 RMK AO2
KFYG 130035Z AUTO 00000KT 10SM CLR 00/M16 A3014 RMK AO2
KFYG 130015Z AUTO 00000KT 10SM CLR 00/M15 A3014 RMK AO2
KFYG 122355Z AUTO 00000KT 10SM CLR 00/M16 A3015 RMK AO2
KFYG 122335Z AUTO 00000KT 10SM CLR 00/M17 A3015 RMK AO2
KFYG 122315Z AUTO 28004KT 10SM CLR 00/M17 A3015 RMK AO2
KFYG 122255Z AUTO 29005KT 10SM CLR 01/M17 A3015 RMK AO2
KFYG 122235Z AUTO 28004KT 10SM CLR 02/M18 A3015 RMK AO2
KFYG 122215Z AUTO 30008KT 10SM CLR 02/M18 A3016 RMK AO2
KFYG 122155Z AUTO 29008G14KT 10SM CLR 02/M19 A3016 RMK AO2
KFYG 122135Z AUTO 28008G15KT 10SM CLR 02/M18 A3016 RMK AO2
KFYG 122115Z AUTO 30010KT 10SM CLR 02/M18 A3017 RMK AO2
KFYG 122055Z AUTO 29008G16KT 10SM CLR 02/M18 A3017 RMK AO2
KFYG 122035Z AUTO 29010G18KT 10SM CLR 02/M18 A3016 RMK AO2
KFYG 122015Z AUTO 29009G17KT 10SM CLR 02/M18 A3017 RMK AO2
KFYG 121955Z AUTO 27007G16KT 10SM CLR 02/M17 A3017 RMK AO2
KFYG 121935Z AUTO 28009G14KT 10SM CLR 02/M17 A3017 RMK AO2
KFYG 121915Z AUTO 28009G16KT 10SM CLR 02/M18 A3019 RMK AO2
KFYG 121855Z AUTO 31012G18KT 10SM CLR 02/M18 A3020 RMK AO2
KFYG 121835Z AUTO 30012G18KT 10SM CLR 02/M17 A3021 RMK AO2
KFYG 121815Z AUTO 30012G17KT 10SM CLR 01/M16 A3022 RMK AO2
KFYG 121755Z AUTO 31014G17KT 10SM CLR 00/M16 A3023 RMK AO2
KFYG 121735Z AUTO 31012G15KT 10SM CLR 00/M14 A3024 RMK AO2
KFYG 121715Z AUTO 31011G14KT 10SM CLR 00/M13 A3025 RMK AO2
KFYG 121655Z AUTO 33010KT 10SM CLR 00/M13 A3026 RMK AO2
KFYG 121635Z AUTO 32010KT 10SM CLR 00/M13 A3027 RMK AO2
KFYG 121615Z AUTO 31012KT 10SM CLR M01/M12 A3027 RMK AO2
KFYG 121555Z AUTO 31008KT 10SM CLR M02/M10 A3027 RMK AO2
KFYG 121535Z AUTO 32010KT 10SM CLR M02/M09 A3027 RMK AO2
KFYG 121515Z AUTO 31008KT 10SM CLR M02/M09 A3027 RMK AO2
KFYG 121455Z AUTO 31011KT 10SM CLR M03/M08 A3026 RMK AO2
KFYG 121435Z AUTO 32011KT 10SM CLR M03/M08 A3027 RMK AO2
KFYG 121415Z AUTO 31014G18KT 10SM CLR M03/M08 A3027 RMK AO2